createdAt,value
2023-01-11T00:00:49.961Z,5.90
2023-01-11T00:02:22.753Z,5.90
2023-01-11T00:03:55.897Z,5.90
2023-01-11T00:05:28.915Z,6.00
2023-01-11T00:07:01.704Z,5.90
2023-01-11T00:08:34.520Z,5.90
2023-01-11T00:10:07.394Z,6.00
2023-01-11T00:11:40.119Z,5.90
2023-01-11T00:13:11.857Z,5.90
2023-01-11T00:14:44.574Z,5.90
2023-01-11T00:16:18.986Z,5.90
2023-01-11T00:17:51.715Z,5.90
2023-01-11T00:19:24.524Z,5.90
2023-01-11T00:20:56.365Z,5.90
2023-01-11T00:22:29.055Z,5.90
2023-01-11T00:24:01.749Z,5.90
2023-01-11T00:25:33.546Z,5.90
2023-01-11T00:27:06.303Z,5.90
2023-01-11T00:28:39.083Z,5.90
2023-01-11T00:30:12.845Z,5.90
2023-01-11T00:31:46.858Z,5.90
2023-01-11T00:33:19.563Z,5.90
2023-01-11T00:34:52.235Z,5.80
2023-01-11T00:36:24.941Z,5.90
2023-01-11T00:37:57.649Z,5.90
2023-01-11T00:39:30.334Z,5.90
2023-01-11T00:41:22.116Z,5.90
2023-01-11T00:43:12.453Z,6.00
2023-01-11T00:45:03.295Z,5.90
2023-01-11T00:46:53.763Z,6.00
2023-01-11T00:48:27.782Z,6.00
2023-01-11T00:49:59.552Z,6.00
2023-01-11T00:51:32.240Z,6.00
2023-01-11T00:53:06.092Z,6.10
2023-01-11T00:54:39.696Z,6.00
2023-01-11T00:56:12.381Z,6.00
2023-01-11T00:57:45.112Z,6.10
2023-01-11T00:59:16.971Z,6.10
2023-01-11T01:00:49.656Z,6.10
2023-01-11T01:02:22.869Z,6.10
2023-01-11T01:03:56.063Z,6.10
2023-01-11T01:05:28.828Z,6.10
2023-01-11T01:07:00.641Z,6.10
2023-01-11T01:08:33.405Z,6.20
2023-01-11T01:10:07.068Z,6.20
2023-01-11T01:11:39.764Z,6.20
2023-01-11T01:13:30.459Z,6.20
2023-01-11T01:15:02.472Z,6.20
2023-01-11T01:16:35.357Z,6.10
2023-01-11T01:18:08.030Z,6.10
2023-01-11T01:19:42.066Z,6.20
2023-01-11T01:21:14.753Z,6.20
2023-01-11T01:22:46.636Z,6.20
2023-01-11T01:24:19.328Z,6.30
2023-01-11T01:25:52.062Z,6.30
2023-01-11T01:27:23.849Z,6.30
2023-01-11T01:28:56.556Z,6.30
2023-01-11T01:30:29.240Z,6.30
2023-01-11T01:32:01.978Z,6.30
2023-01-11T01:33:33.800Z,6.30
2023-01-11T01:35:08.836Z,6.30
2023-01-11T01:36:40.767Z,6.40
2023-01-11T01:38:13.497Z,6.40
2023-01-11T01:39:46.213Z,6.40
2023-01-11T01:41:19.296Z,6.30
2023-01-11T01:42:55.016Z,6.30
2023-01-11T01:44:57.794Z,6.30
2023-01-11T01:46:32.449Z,6.30
2023-01-11T01:48:07.149Z,6.30
2023-01-11T01:49:39.836Z,6.30
2023-01-11T01:51:19.591Z,6.40
2023-01-11T01:52:56.901Z,6.30
2023-01-11T01:54:34.222Z,6.30
2023-01-11T01:56:10.340Z,6.30
2023-01-11T01:57:44.880Z,6.30
2023-01-11T01:59:20.239Z,6.30
2023-01-11T02:00:53.237Z,6.30
2023-01-11T02:02:26.257Z,6.30
2023-01-11T02:03:59.228Z,6.30
2023-01-11T02:05:32.271Z,6.30
2023-01-11T02:07:09.900Z,6.30
2023-01-11T02:08:46.181Z,6.40
2023-01-11T02:10:20.352Z,6.40
2023-01-11T02:11:53.860Z,6.30
2023-01-11T02:13:26.911Z,6.30
2023-01-11T02:15:01.091Z,6.30
2023-01-11T02:16:34.613Z,6.30
2023-01-11T02:18:11.885Z,6.30
2023-01-11T02:19:55.659Z,6.30
2023-01-11T02:21:35.270Z,6.40
2023-01-11T02:23:43.575Z,6.30
2023-01-11T02:25:39.218Z,6.40
2023-01-11T02:27:34.534Z,6.40
2023-01-11T02:29:16.061Z,6.40
2023-01-11T02:30:55.723Z,6.40
2023-01-11T02:32:35.755Z,6.40
2023-01-11T02:34:20.872Z,6.40
2023-01-11T02:36:06.013Z,6.40
2023-01-11T02:37:47.848Z,6.40
2023-01-11T02:39:30.105Z,6.40
2023-01-11T02:41:11.269Z,6.40
2023-01-11T02:43:09.609Z,6.50
2023-01-11T02:45:02.043Z,6.40
2023-01-11T02:46:42.610Z,6.50
2023-01-11T02:48:20.481Z,6.50
2023-01-11T02:49:59.998Z,6.50
2023-01-11T02:51:38.982Z,6.50
2023-01-11T02:53:21.149Z,6.50
2023-01-11T02:54:58.299Z,6.50
2023-01-11T02:56:37.982Z,6.60
2023-01-11T02:58:13.332Z,6.60
2023-01-11T02:59:49.904Z,6.50
2023-01-11T03:01:23.384Z,6.60
2023-01-11T03:03:11.063Z,6.50
2023-01-11T03:04:44.063Z,6.60
2023-01-11T03:06:21.582Z,6.60
2023-01-11T03:08:01.846Z,6.60
2023-01-11T03:09:42.458Z,6.60
2023-01-11T03:11:38.474Z,6.60
2023-01-11T03:13:25.652Z,6.60
2023-01-11T03:15:07.952Z,6.60
2023-01-11T03:16:45.757Z,6.60
2023-01-11T03:18:30.955Z,6.70
2023-01-11T03:20:12.410Z,6.70
2023-01-11T03:22:00.094Z,6.70
2023-01-11T03:23:39.989Z,6.70
2023-01-11T03:25:19.824Z,6.70
2023-01-11T03:27:04.943Z,6.70
2023-01-11T03:28:43.808Z,6.70
2023-01-11T03:30:24.948Z,6.70
2023-01-11T03:32:14.649Z,6.70
2023-01-11T03:33:57.414Z,6.80
2023-01-11T03:35:36.080Z,6.80
2023-01-11T03:37:14.637Z,6.80
2023-01-11T03:38:52.375Z,6.80
2023-01-11T03:40:29.599Z,6.80
2023-01-11T03:42:04.811Z,6.80
2023-01-11T03:43:40.906Z,6.90
2023-01-11T03:45:12.789Z,6.90
2023-01-11T03:46:51.105Z,6.90
2023-01-11T03:48:29.457Z,6.90
2023-01-11T03:50:05.681Z,6.90
2023-01-11T03:51:43.051Z,6.90
2023-01-11T03:53:18.893Z,6.90
2023-01-11T03:54:51.837Z,6.90
2023-01-11T03:56:29.694Z,6.90
2023-01-11T03:58:02.398Z,7.00
2023-01-11T03:59:35.608Z,7.00
2023-01-11T04:01:09.103Z,7.10
2023-01-11T04:02:42.729Z,7.10
2023-01-11T04:04:15.494Z,7.00
2023-01-11T04:05:53.211Z,7.00
2023-01-11T04:07:25.934Z,7.10
2023-01-11T04:08:58.620Z,7.10
2023-01-11T04:10:30.396Z,7.10
2023-01-11T04:12:03.060Z,7.10
2023-01-11T04:13:35.734Z,7.10
2023-01-11T04:15:09.385Z,7.10
2023-01-11T04:16:42.120Z,7.10
2023-01-11T04:18:16.166Z,7.10
2023-01-11T04:19:48.872Z,7.10
2023-01-11T04:21:20.628Z,7.10
2023-01-11T04:22:53.289Z,7.10
2023-01-11T04:24:25.947Z,7.10
2023-01-11T04:25:58.641Z,7.00
2023-01-11T04:27:31.313Z,7.10
2023-01-11T04:29:04.087Z,7.10
2023-01-11T04:30:37.155Z,7.20
2023-01-11T04:32:10.011Z,7.10
2023-01-11T04:33:44.027Z,7.10
2023-01-11T04:35:17.124Z,7.10
2023-01-11T04:36:49.808Z,7.00
2023-01-11T04:38:24.905Z,7.00
2023-01-11T04:39:57.657Z,7.00
2023-01-11T04:41:47.801Z,7.10
2023-01-11T04:43:20.476Z,7.10
2023-01-11T04:44:53.104Z,7.10
2023-01-11T04:46:26.159Z,7.10
2023-01-11T04:47:59.490Z,7.10
2023-01-11T04:49:33.557Z,7.10
2023-01-11T04:51:06.611Z,7.10
2023-01-11T04:52:41.377Z,7.20
2023-01-11T04:54:16.245Z,7.20
2023-01-11T04:55:48.920Z,7.20
2023-01-11T04:57:21.785Z,7.20
2023-01-11T04:58:55.121Z,7.20
2023-01-11T05:00:27.787Z,7.20
2023-01-11T05:01:59.524Z,7.30
2023-01-11T05:03:32.799Z,7.30
2023-01-11T05:05:08.477Z,7.30
2023-01-11T05:06:41.368Z,7.30
2023-01-11T05:08:14.148Z,7.30
2023-01-11T05:09:46.881Z,7.30
2023-01-11T05:11:19.978Z,7.30
2023-01-11T05:12:52.691Z,7.40
2023-01-11T05:14:25.395Z,7.40
2023-01-11T05:15:58.091Z,7.30
2023-01-11T05:17:30.772Z,7.40
2023-01-11T05:19:04.883Z,7.40
2023-01-11T05:20:38.920Z,7.40
2023-01-11T05:22:11.714Z,7.40
2023-01-11T05:23:44.446Z,7.40
2023-01-11T05:25:17.275Z,7.50
2023-01-11T05:26:50.209Z,7.50
2023-01-11T05:28:22.922Z,7.50
2023-01-11T05:29:55.583Z,7.60
2023-01-11T05:31:29.286Z,7.60
2023-01-11T05:33:02.298Z,7.60
2023-01-11T05:34:35.159Z,7.70
2023-01-11T05:36:13.603Z,7.80
2023-01-11T05:37:46.274Z,7.80
2023-01-11T05:39:18.942Z,7.80
2023-01-11T05:40:55.861Z,7.80
2023-01-11T05:42:28.539Z,7.70
2023-01-11T05:44:18.707Z,7.80
2023-01-11T05:45:51.481Z,7.80
2023-01-11T05:47:24.206Z,7.80
2023-01-11T05:48:56.923Z,7.90
2023-01-11T05:50:30.685Z,8.00
2023-01-11T05:52:04.997Z,8.00
2023-01-11T05:53:37.675Z,8.10
2023-01-11T05:55:10.771Z,8.20
2023-01-11T05:56:43.870Z,8.30
2023-01-11T05:58:16.540Z,8.40
2023-01-11T05:59:49.227Z,8.40
2023-01-11T06:01:22.735Z,8.50
2023-01-11T06:02:55.495Z,8.50
2023-01-11T06:04:28.346Z,8.50
2023-01-11T06:06:01.239Z,8.60
2023-01-11T06:07:35.256Z,8.60
2023-01-11T06:09:07.941Z,8.70
2023-01-11T06:10:40.877Z,8.70
2023-01-11T06:12:13.602Z,8.70
2023-01-11T06:13:45.458Z,8.80
2023-01-11T06:15:18.143Z,8.80
2023-01-11T06:16:50.914Z,8.70
2023-01-11T06:18:23.654Z,8.80
2023-01-11T06:19:56.318Z,8.80
2023-01-11T06:21:29.009Z,8.90
2023-01-11T06:23:02.103Z,9.00
2023-01-11T06:24:34.776Z,9.00
2023-01-11T06:26:09.894Z,9.00
2023-01-11T06:27:42.583Z,9.10
2023-01-11T06:29:15.448Z,9.10
2023-01-11T06:30:52.964Z,9.10
2023-01-11T06:32:25.804Z,9.10
2023-01-11T06:33:58.472Z,9.10
2023-01-11T06:35:31.156Z,9.10
2023-01-11T06:37:03.841Z,9.10
2023-01-11T06:38:38.305Z,9.10
2023-01-11T06:40:12.261Z,9.10
2023-01-11T06:41:44.970Z,9.10
2023-01-11T06:43:16.682Z,9.10
2023-01-11T06:44:49.377Z,9.10
2023-01-11T06:46:22.166Z,9.10
2023-01-11T06:47:53.934Z,9.10
2023-01-11T06:49:26.610Z,9.10
2023-01-11T06:51:00.316Z,9.20
2023-01-11T06:52:32.996Z,9.20
2023-01-11T06:54:07.051Z,9.20
2023-01-11T06:55:39.887Z,9.10
2023-01-11T06:57:12.673Z,9.10
2023-01-11T06:58:47.140Z,9.10
2023-01-11T07:00:22.403Z,9.10
2023-01-11T07:01:55.156Z,9.10
2023-01-11T07:03:28.009Z,9.10
2023-01-11T07:05:00.727Z,9.10
2023-01-11T07:06:35.662Z,9.00
2023-01-11T07:08:08.505Z,9.00
2023-01-11T07:09:42.558Z,9.00
2023-01-11T07:11:15.320Z,9.00
2023-01-11T07:12:48.027Z,9.00
2023-01-11T07:14:21.993Z,8.90
2023-01-11T07:15:58.302Z,9.00
2023-01-11T07:17:31.266Z,9.00
2023-01-11T07:19:03.984Z,9.00
2023-01-11T07:20:36.704Z,9.00
2023-01-11T07:22:09.450Z,8.90
2023-01-11T07:23:42.149Z,8.90
2023-01-11T07:25:16.740Z,8.90
2023-01-11T07:26:49.444Z,8.90
2023-01-11T07:28:22.140Z,8.80
2023-01-11T07:29:54.934Z,8.80
2023-01-11T07:31:27.713Z,8.80
2023-01-11T07:33:01.328Z,8.80
2023-01-11T07:34:33.996Z,8.70
2023-01-11T07:36:07.097Z,8.70
2023-01-11T07:37:41.427Z,8.70
2023-01-11T07:39:14.163Z,8.70
2023-01-11T07:40:48.420Z,8.80
2023-01-11T07:42:38.609Z,8.70
2023-01-11T07:44:10.526Z,8.80
2023-01-11T07:45:46.729Z,8.80
2023-01-11T07:47:19.771Z,8.80
2023-01-11T07:48:52.460Z,8.80
2023-01-11T07:50:25.189Z,8.80
2023-01-11T07:51:57.904Z,8.80
2023-01-11T07:53:30.620Z,8.80
2023-01-11T07:55:04.407Z,8.80
2023-01-11T07:56:38.437Z,8.80
2023-01-11T07:58:12.854Z,8.90
2023-01-11T07:59:45.618Z,8.90
2023-01-11T08:01:18.300Z,9.00
2023-01-11T08:02:52.404Z,9.00
2023-01-11T08:04:25.230Z,9.10
2023-01-11T08:05:58.030Z,9.10
2023-01-11T08:07:30.713Z,9.10
2023-01-11T08:09:03.441Z,9.10
2023-01-11T08:10:36.340Z,9.10
2023-01-11T08:12:28.011Z,9.20
2023-01-11T08:14:18.545Z,9.20
2023-01-11T08:15:51.278Z,9.20
2023-01-11T08:17:23.977Z,9.20
2023-01-11T08:18:56.677Z,9.20
2023-01-11T08:20:29.450Z,9.30
2023-01-11T08:22:02.243Z,9.30
2023-01-11T08:23:35.542Z,9.30
2023-01-11T08:25:08.875Z,9.30
2023-01-11T08:26:41.580Z,9.30
2023-01-11T08:28:15.612Z,9.30
2023-01-11T08:29:48.304Z,9.30
2023-01-11T08:31:21.628Z,9.30
2023-01-11T08:32:54.346Z,9.30
2023-01-11T08:34:27.576Z,9.40
2023-01-11T08:36:05.701Z,9.40
2023-01-11T08:37:38.383Z,9.40
2023-01-11T08:39:11.699Z,9.40
2023-01-11T08:40:44.380Z,9.50
2023-01-11T08:42:17.077Z,9.50
2023-01-11T08:43:51.162Z,9.50
2023-01-11T08:45:23.873Z,9.50
2023-01-11T08:46:56.570Z,9.50
2023-01-11T08:48:29.275Z,9.50
2023-01-11T08:50:01.996Z,9.50
2023-01-11T08:51:34.695Z,9.50
2023-01-11T08:53:07.381Z,9.60
2023-01-11T08:54:40.060Z,9.70
2023-01-11T08:56:12.824Z,9.70
2023-01-11T08:57:45.862Z,9.80
2023-01-11T08:59:21.958Z,9.90
2023-01-11T09:00:54.760Z,9.90
2023-01-11T09:02:27.555Z,10.00
2023-01-11T09:04:00.382Z,10.00
2023-01-11T09:05:33.118Z,10.00
2023-01-11T09:07:05.835Z,10.10
2023-01-11T09:08:38.533Z,10.10
2023-01-11T09:10:12.095Z,10.20
2023-01-11T09:11:58.680Z,10.20
2023-01-11T09:13:31.695Z,10.30
2023-01-11T09:15:06.673Z,10.30
2023-01-11T09:16:39.416Z,10.40
2023-01-11T09:18:12.117Z,10.50
2023-01-11T09:19:44.805Z,10.40
2023-01-11T09:21:17.876Z,10.40
2023-01-11T09:22:52.965Z,10.40
2023-01-11T09:24:25.919Z,10.40
2023-01-11T09:25:58.615Z,10.40
2023-01-11T09:27:31.358Z,10.40
2023-01-11T09:29:04.306Z,10.40
2023-01-11T09:30:39.147Z,10.40
2023-01-11T09:32:11.873Z,10.40
2023-01-11T09:33:44.584Z,10.40
2023-01-11T09:35:18.169Z,10.50
2023-01-11T09:36:50.897Z,10.50
2023-01-11T09:38:25.624Z,10.50
2023-01-11T09:39:59.513Z,10.60
2023-01-11T09:42:01.768Z,10.60
2023-01-11T09:43:42.223Z,10.60
2023-01-11T09:45:20.170Z,10.60
2023-01-11T09:47:05.887Z,10.60
2023-01-11T09:48:43.806Z,10.60
2023-01-11T09:50:21.809Z,10.60
2023-01-11T09:52:05.062Z,10.50
2023-01-11T09:53:38.464Z,10.60
2023-01-11T09:55:19.774Z,10.50
2023-01-11T09:57:00.320Z,10.50
2023-01-11T09:58:42.508Z,10.50
2023-01-11T10:00:24.060Z,10.50
2023-01-11T10:02:05.483Z,10.50
2023-01-11T10:03:59.821Z,10.50
2023-01-11T10:05:46.100Z,10.40
2023-01-11T10:07:38.604Z,10.40
2023-01-11T10:18:23.665Z,10.40
2023-01-11T10:18:42.731Z,10.50
2023-01-11T10:19:41.120Z,10.50
2023-01-11T10:21:19.554Z,10.50
2023-01-11T10:22:56.324Z,10.40
2023-01-11T10:24:33.549Z,10.40
2023-01-11T10:26:13.625Z,10.40
2023-01-11T10:27:56.684Z,10.40
2023-01-11T10:29:49.704Z,10.40
2023-01-11T10:31:43.830Z,10.50
2023-01-11T10:33:38.245Z,10.40
2023-01-11T10:35:29.150Z,10.50
2023-01-11T10:37:26.591Z,10.50
2023-01-11T10:39:15.715Z,10.50
2023-01-11T10:41:08.164Z,10.50
2023-01-11T10:42:47.498Z,10.50
2023-01-11T10:44:30.314Z,10.50
2023-01-11T10:46:09.163Z,10.50
2023-01-11T10:47:49.178Z,10.50
2023-01-11T10:49:43.131Z,10.50
2023-01-11T10:51:27.160Z,10.50
2023-01-11T10:53:06.796Z,10.40
2023-01-11T10:54:46.533Z,10.40
2023-01-11T10:56:28.279Z,10.40
2023-01-11T10:58:14.646Z,10.40
2023-01-11T11:00:05.122Z,10.50
2023-01-11T11:01:51.281Z,10.50
2023-01-11T11:03:41.147Z,10.50
2023-01-11T11:05:26.377Z,10.50
2023-01-11T11:07:08.264Z,10.50
2023-01-11T11:08:48.244Z,10.50
2023-01-11T11:10:25.671Z,10.60
2023-01-11T11:12:02.641Z,10.60
2023-01-11T11:13:47.950Z,10.60
2023-01-11T11:15:24.936Z,10.60
2023-01-11T11:17:07.155Z,10.60
2023-01-11T11:18:40.314Z,10.60
2023-01-11T11:20:19.334Z,10.60
2023-01-11T11:21:53.750Z,10.60
2023-01-11T11:23:28.840Z,10.60
2023-01-11T11:25:05.384Z,10.70
2023-01-11T11:26:41.756Z,10.70
2023-01-11T11:28:27.340Z,10.70
2023-01-11T11:30:00.062Z,10.80
2023-01-11T11:31:33.574Z,10.80
2023-01-11T11:33:17.765Z,10.80
2023-01-11T11:34:51.606Z,10.80
2023-01-11T11:36:25.885Z,10.90
2023-01-11T11:37:58.906Z,10.90
2023-01-11T11:39:32.646Z,10.90
2023-01-11T11:41:07.593Z,11.00
2023-01-11T11:42:40.283Z,11.00
2023-01-11T11:44:18.531Z,11.00
2023-01-11T11:45:53.208Z,11.00
2023-01-11T11:47:25.901Z,11.00
2023-01-11T11:49:13.026Z,11.00
2023-01-11T11:50:46.912Z,11.00
2023-01-11T11:52:20.992Z,11.00
2023-01-11T11:53:56.150Z,11.00
2023-01-11T11:55:30.949Z,11.00
2023-01-11T11:57:16.148Z,11.00
2023-01-11T11:58:49.236Z,11.00
2023-01-11T12:00:26.227Z,11.00
2023-01-11T12:02:03.046Z,11.00
2023-01-11T12:03:36.115Z,11.10
2023-01-11T12:05:11.199Z,11.00
2023-01-11T12:06:44.969Z,11.00
2023-01-11T12:08:19.653Z,11.00
2023-01-11T12:09:59.483Z,11.00
2023-01-11T12:11:35.026Z,11.00
2023-01-11T12:13:28.494Z,11.00
2023-01-11T12:15:20.618Z,11.00
2023-01-11T12:16:53.438Z,11.00
2023-01-11T12:18:28.319Z,11.00
2023-01-11T12:20:01.098Z,11.00
2023-01-11T12:21:33.807Z,10.90
2023-01-11T12:23:16.674Z,11.00
2023-01-11T12:25:06.401Z,11.00
2023-01-11T12:26:45.503Z,10.90
2023-01-11T12:28:28.330Z,10.90
2023-01-11T12:30:12.926Z,10.80
2023-01-11T12:31:59.754Z,10.80
2023-01-11T12:33:38.824Z,10.80
2023-01-11T12:35:35.373Z,10.80
2023-01-11T12:37:17.272Z,10.80
2023-01-11T12:39:04.989Z,10.80
2023-01-11T12:40:49.659Z,10.80
2023-01-11T12:42:48.517Z,10.90
2023-01-11T12:44:46.844Z,10.90
2023-01-11T12:46:29.872Z,10.90
2023-01-11T12:48:23.092Z,10.90
2023-01-11T12:50:06.181Z,10.80
2023-01-11T12:52:03.158Z,10.80
2023-01-11T12:54:05.587Z,10.80
2023-01-11T12:55:51.438Z,10.90
2023-01-11T12:57:33.691Z,10.90
2023-01-11T12:59:21.606Z,10.90
2023-01-11T13:01:16.016Z,10.90
2023-01-11T13:03:22.847Z,10.90
2023-01-11T13:05:04.832Z,10.90
2023-01-11T13:06:42.695Z,10.90
2023-01-11T13:08:23.161Z,10.80
2023-01-11T13:10:11.520Z,10.80
2023-01-11T13:11:52.890Z,10.90
2023-01-11T13:13:34.676Z,10.80
2023-01-11T13:15:23.385Z,10.80
2023-01-11T13:17:06.118Z,10.80
2023-01-11T13:18:46.991Z,10.80
2023-01-11T13:20:30.927Z,10.80
2023-01-11T13:22:06.838Z,10.80
2023-01-11T13:23:43.095Z,10.80
2023-01-11T13:25:19.589Z,10.80
2023-01-11T13:26:57.841Z,10.80
2023-01-11T13:28:36.067Z,10.80
2023-01-11T13:30:13.303Z,10.80
2023-01-11T13:31:49.352Z,10.80
2023-01-11T13:33:23.610Z,10.80
2023-01-11T13:35:00.720Z,10.80
2023-01-11T13:36:39.591Z,10.80
2023-01-11T13:38:26.139Z,10.80
2023-01-11T13:40:03.923Z,10.70
2023-01-11T13:41:42.532Z,10.70
2023-01-11T13:43:22.217Z,10.70
2023-01-11T13:44:59.322Z,10.70
2023-01-11T13:46:49.549Z,10.70
2023-01-11T13:48:27.414Z,10.70
2023-01-11T13:50:04.517Z,10.70
2023-01-11T13:51:43.517Z,10.70
2023-01-11T13:53:21.406Z,10.70
2023-01-11T13:55:01.770Z,10.60
2023-01-11T13:56:40.413Z,10.60
2023-01-11T13:58:18.194Z,10.70
2023-01-11T13:59:55.984Z,10.60
2023-01-11T14:01:38.802Z,10.70
2023-01-11T14:03:21.200Z,10.60
2023-01-11T14:04:58.901Z,10.60
2023-01-11T14:06:44.379Z,10.60
2023-01-11T14:08:38.811Z,10.60
2023-01-11T14:10:27.197Z,10.60
2023-01-11T14:12:09.515Z,10.60
2023-01-11T14:14:17.863Z,10.60
2023-01-11T14:15:57.705Z,10.60
2023-01-11T14:17:44.687Z,10.60
2023-01-11T14:19:23.633Z,10.70
2023-01-11T14:21:03.982Z,10.70
2023-01-11T14:22:41.655Z,10.70
2023-01-11T14:24:16.512Z,10.70
2023-01-11T14:26:18.965Z,10.70
2023-01-11T14:28:09.477Z,10.70
2023-01-11T14:30:27.115Z,10.70
2023-01-11T14:32:17.744Z,10.70
2023-01-11T14:34:27.249Z,10.70
2023-01-11T14:36:18.723Z,10.70
2023-01-11T14:38:21.955Z,10.70
2023-01-11T14:40:15.493Z,10.70
2023-01-11T14:42:06.216Z,10.70
2023-01-11T14:44:04.300Z,10.70
2023-01-11T14:45:57.439Z,10.70
2023-01-11T14:47:45.699Z,10.70
2023-01-11T14:49:30.302Z,10.70
2023-01-11T14:51:23.757Z,10.60
2023-01-11T14:53:00.707Z,10.60
2023-01-11T14:54:36.057Z,10.60
2023-01-11T14:56:36.989Z,10.50
2023-01-11T14:58:19.421Z,10.50
2023-01-11T14:59:52.145Z,10.40
2023-01-11T15:01:24.882Z,10.40
2023-01-11T15:03:32.040Z,10.50
2023-01-11T15:05:09.884Z,10.50
2023-01-11T15:06:55.059Z,10.50
2023-01-11T15:08:29.659Z,10.40
2023-01-11T15:10:04.440Z,10.40
2023-01-11T15:11:40.731Z,10.40
2023-01-11T15:13:18.985Z,10.40
2023-01-11T15:14:56.475Z,10.30
2023-01-11T15:16:49.330Z,10.30
2023-01-11T15:18:24.288Z,10.20
2023-01-11T15:20:07.429Z,10.20
2023-01-11T15:21:47.277Z,10.10
2023-01-11T15:23:20.650Z,10.10
2023-01-11T15:24:59.825Z,10.10
2023-01-11T15:26:32.552Z,10.10
2023-01-11T15:28:26.293Z,10.00
2023-01-11T15:29:59.273Z,10.00
2023-01-11T15:31:39.048Z,10.00
2023-01-11T15:33:53.775Z,10.00
2023-01-11T15:35:35.166Z,10.00
2023-01-11T15:37:35.784Z,10.00
2023-01-11T15:39:10.703Z,9.90
2023-01-11T15:40:46.299Z,10.00
2023-01-11T15:42:38.235Z,9.90
2023-01-11T15:44:35.943Z,9.90
2023-01-11T15:46:51.752Z,9.90
2023-01-11T15:48:33.449Z,9.90
2023-01-11T15:50:43.515Z,9.80
2023-01-11T15:53:00.560Z,9.80
2023-01-11T15:54:50.933Z,9.70
2023-01-11T15:56:44.441Z,9.60
2023-01-11T15:58:40.881Z,9.60
2023-01-11T16:00:37.035Z,9.60
2023-01-11T16:02:44.655Z,9.60
2023-01-11T16:04:29.984Z,9.60
2023-01-11T16:06:16.508Z,9.60
2023-01-11T16:07:56.497Z,9.60
2023-01-11T16:09:41.206Z,9.60
2023-01-11T16:11:23.061Z,9.50
2023-01-11T16:13:18.815Z,9.50
2023-01-11T16:15:22.371Z,9.50
2023-01-11T16:16:55.964Z,9.50
2023-01-11T16:18:34.844Z,9.50
2023-01-11T16:20:23.642Z,9.50
2023-01-11T16:21:59.379Z,9.50
2023-01-11T16:23:34.134Z,9.50
2023-01-11T16:25:07.841Z,9.50
2023-01-11T16:26:42.527Z,9.40
2023-01-11T16:28:17.119Z,9.40
2023-01-11T16:29:51.663Z,9.40
2023-01-11T16:31:25.153Z,9.40
2023-01-11T16:33:16.637Z,9.40
2023-01-11T16:34:51.971Z,9.40
2023-01-11T16:36:25.161Z,9.40
2023-01-11T16:38:02.485Z,9.30
2023-01-11T16:39:35.382Z,9.30
2023-01-11T16:41:12.966Z,9.30
2023-01-11T16:42:51.107Z,9.30
2023-01-11T16:44:34.373Z,9.30
2023-01-11T16:46:07.088Z,9.30
2023-01-11T16:47:39.804Z,9.20
2023-01-11T16:49:15.865Z,9.20
2023-01-11T16:51:00.358Z,9.10
2023-01-11T16:52:45.128Z,9.20
2023-01-11T16:54:26.066Z,9.10
2023-01-11T16:56:05.284Z,9.10
2023-01-11T16:57:42.648Z,9.10
2023-01-11T16:59:24.269Z,9.00
2023-01-11T17:01:00.048Z,9.00
2023-01-11T17:02:35.743Z,9.00
2023-01-11T17:04:30.012Z,9.00
2023-01-11T17:06:20.036Z,8.90
2023-01-11T17:07:52.714Z,8.90
2023-01-11T17:09:29.423Z,8.90
2023-01-11T17:11:05.448Z,8.80
2023-01-11T17:12:38.218Z,8.80
2023-01-11T17:14:37.434Z,8.80
2023-01-11T17:16:12.949Z,8.80
2023-01-11T17:17:45.894Z,8.80
2023-01-11T17:19:20.828Z,8.70
2023-01-11T17:20:54.756Z,8.70
2023-01-11T17:22:30.609Z,8.70
2023-01-11T17:24:05.267Z,8.70
2023-01-11T17:25:44.867Z,8.60
2023-01-11T17:27:21.125Z,8.60
2023-01-11T17:28:57.215Z,8.60
2023-01-11T17:30:31.063Z,8.60
2023-01-11T17:32:06.651Z,8.50
2023-01-11T17:33:39.404Z,8.50
2023-01-11T17:35:17.537Z,8.60
2023-01-11T17:36:51.210Z,8.50
2023-01-11T17:38:26.348Z,8.50
2023-01-11T17:39:59.630Z,8.50
2023-01-11T17:41:51.727Z,8.50
2023-01-11T17:43:43.418Z,8.50
2023-01-11T17:45:22.296Z,8.50
2023-01-11T17:46:55.065Z,8.50
2023-01-11T17:48:29.440Z,8.40
2023-01-11T17:50:03.667Z,8.50
2023-01-11T17:51:36.475Z,8.50
2023-01-11T17:53:16.686Z,8.40
2023-01-11T17:55:00.877Z,8.40
2023-01-11T17:56:39.102Z,8.40
2023-01-11T17:58:23.728Z,8.40
2023-01-11T18:00:18.636Z,8.40
2023-01-11T18:01:53.006Z,8.30
2023-01-11T18:03:25.869Z,8.40
2023-01-11T18:05:00.584Z,8.30
2023-01-11T18:06:36.998Z,8.30
2023-01-11T18:08:18.700Z,8.30
2023-01-11T18:09:58.325Z,8.30
2023-01-11T18:11:33.008Z,8.30
2023-01-11T18:13:07.215Z,8.30
2023-01-11T18:14:42.269Z,8.30
2023-01-11T18:16:19.634Z,8.30
2023-01-11T18:17:56.698Z,8.30
2023-01-11T18:19:35.589Z,8.20
2023-01-11T18:21:39.832Z,8.20
2023-01-11T18:23:22.561Z,8.20
2023-01-11T18:24:56.428Z,8.20
2023-01-11T18:26:31.730Z,8.20
2023-01-11T18:28:28.429Z,8.20
2023-01-11T18:30:06.045Z,8.10
2023-01-11T18:31:38.880Z,8.10
2023-01-11T18:33:15.616Z,8.10
2023-01-11T18:34:51.149Z,8.10
2023-01-11T18:36:26.227Z,8.10
2023-01-11T18:37:58.897Z,8.10
2023-01-11T18:39:31.586Z,8.10
2023-01-11T18:41:21.372Z,8.10
2023-01-11T18:42:54.734Z,8.10
2023-01-11T18:44:30.768Z,8.10
2023-01-11T18:46:03.513Z,8.10
2023-01-11T18:47:36.192Z,8.00
2023-01-11T18:49:09.137Z,8.00
2023-01-11T18:50:44.700Z,8.00
2023-01-11T18:52:18.821Z,8.00
2023-01-11T18:53:51.542Z,8.00
2023-01-11T18:55:24.207Z,7.90
2023-01-11T18:56:56.911Z,8.00
2023-01-11T18:58:29.598Z,7.90
2023-01-11T19:00:04.627Z,7.90
2023-01-11T19:01:54.039Z,7.90
2023-01-11T19:03:29.034Z,7.90
2023-01-11T19:05:01.753Z,7.90
2023-01-11T19:06:34.462Z,7.90
2023-01-11T19:08:07.589Z,7.80
2023-01-11T19:09:39.436Z,7.90
2023-01-11T19:11:13.788Z,7.80
2023-01-11T19:12:46.599Z,7.80
2023-01-11T19:14:19.292Z,7.80
2023-01-11T19:15:53.398Z,7.80
2023-01-11T19:17:28.332Z,7.80
2023-01-11T19:19:01.018Z,7.80
2023-01-11T19:20:33.709Z,7.80
2023-01-11T19:22:07.386Z,7.80
2023-01-11T19:23:40.346Z,7.80
2023-01-11T19:25:13.171Z,7.80
2023-01-11T19:26:45.862Z,7.70
2023-01-11T19:28:18.557Z,7.80
2023-01-11T19:29:52.568Z,7.70
2023-01-11T19:31:26.627Z,7.70
2023-01-11T19:32:59.350Z,7.70
2023-01-11T19:34:33.947Z,7.70
2023-01-11T19:36:08.168Z,7.70
2023-01-11T19:37:40.847Z,7.70
2023-01-11T19:39:13.559Z,7.70
2023-01-11T19:40:48.448Z,7.70
2023-01-11T19:42:23.671Z,7.70
2023-01-11T19:43:56.334Z,7.70
2023-01-11T19:45:29.032Z,7.70
2023-01-11T19:47:12.807Z,7.70
2023-01-11T19:48:45.883Z,7.70
2023-01-11T19:50:19.321Z,7.70
2023-01-11T19:51:52.532Z,7.70
2023-01-11T19:53:25.225Z,7.60
2023-01-11T19:54:57.989Z,7.60
2023-01-11T19:56:30.995Z,7.60
2023-01-11T19:58:04.537Z,7.60
2023-01-11T19:59:36.293Z,7.60
2023-01-11T20:01:12.868Z,7.60
2023-01-11T20:02:47.014Z,7.60
2023-01-11T20:04:21.016Z,7.60
2023-01-11T20:05:53.704Z,7.60
2023-01-11T20:07:26.733Z,7.60
2023-01-11T20:08:59.728Z,7.50
2023-01-11T20:10:32.978Z,7.50
2023-01-11T20:12:06.470Z,7.50
2023-01-11T20:13:39.386Z,7.50
2023-01-11T20:15:12.734Z,7.50
2023-01-11T20:16:45.473Z,7.40
2023-01-11T20:18:19.537Z,7.40
2023-01-11T20:19:54.518Z,7.40
2023-01-11T20:21:31.583Z,7.40
2023-01-11T20:23:04.729Z,7.40
2023-01-11T20:24:37.448Z,7.40
2023-01-11T20:26:14.816Z,7.40
2023-01-11T20:27:47.524Z,7.40
2023-01-11T20:29:20.337Z,7.40
2023-01-11T20:30:52.488Z,7.40
2023-01-11T20:32:40.529Z,7.40
2023-01-11T20:34:16.187Z,7.30
2023-01-11T20:35:49.345Z,7.30
2023-01-11T20:37:22.015Z,7.30
2023-01-11T20:38:56.211Z,7.40
2023-01-11T20:40:28.894Z,7.30
2023-01-11T20:42:02.744Z,7.40
2023-01-11T20:43:37.926Z,7.30
2023-01-11T20:45:12.264Z,7.30
2023-01-11T20:46:47.542Z,7.30
2023-01-11T20:48:20.614Z,7.30
2023-01-11T20:49:54.649Z,7.30
2023-01-11T20:51:27.403Z,7.30
2023-01-11T20:53:00.595Z,7.30
2023-01-11T20:54:33.279Z,7.30
2023-01-11T20:56:06.270Z,7.30
2023-01-11T20:57:39.017Z,7.30
2023-01-11T20:59:13.522Z,7.30
2023-01-11T21:00:45.296Z,7.30
2023-01-11T21:02:17.982Z,7.30
2023-01-11T21:03:50.648Z,7.30
2023-01-11T21:05:24.655Z,7.30
2023-01-11T21:06:57.309Z,7.30
2023-01-11T21:08:30.041Z,7.30
2023-01-11T21:10:02.804Z,7.30
2023-01-11T21:11:35.778Z,7.30
2023-01-11T21:14:40.077Z,7.30
2023-01-11T21:16:14.217Z,7.40
2023-01-11T21:17:46.939Z,7.30
2023-01-11T21:19:20.074Z,7.30
2023-01-11T21:20:54.141Z,7.30
2023-01-11T21:22:27.491Z,7.40
2023-01-11T21:24:01.948Z,7.30
2023-01-11T21:25:34.988Z,7.30
2023-01-11T21:27:07.865Z,7.30
2023-01-11T21:28:41.445Z,7.30
2023-01-11T21:30:14.454Z,7.30
2023-01-11T21:31:47.401Z,7.30
2023-01-11T21:33:20.137Z,7.30
2023-01-11T21:34:52.827Z,7.30
2023-01-11T21:36:27.447Z,7.30
2023-01-11T21:38:00.136Z,7.30